createdAt,value
2022-09-15T00:02:14.322Z,36.30
2022-09-15T00:04:41.060Z,34.47
2022-09-15T00:07:08.050Z,34.67
2022-09-15T00:09:35.730Z,29.73
2022-09-15T00:12:02.992Z,30.53
2022-09-15T00:14:29.619Z,30.97
2022-09-15T00:16:56.261Z,37.13
2022-09-15T00:19:23.354Z,33.70
2022-09-15T00:21:50.407Z,33.40
2022-09-15T00:24:17.503Z,28.07
2022-09-15T00:26:44.318Z,32.93
2022-09-15T00:29:11.479Z,33.77
2022-09-15T00:31:38.351Z,30.63
2022-09-15T00:34:05.178Z,36.67
2022-09-15T00:36:32.541Z,32.10
2022-09-15T00:38:59.360Z,33.00
2022-09-15T00:41:26.440Z,32.77
2022-09-15T00:44:00.432Z,30.67
2022-09-15T00:46:31.383Z,34.60
2022-09-15T00:49:24.015Z,26.63
2022-09-15T00:51:56.611Z,29.63
2022-09-15T00:54:31.586Z,27.60
2022-09-15T00:57:02.774Z,38.07
2022-09-15T00:59:33.242Z,30.40
2022-09-15T01:02:17.582Z,34.47
2022-09-15T01:04:44.818Z,35.87
2022-09-15T01:07:15.716Z,30.70
2022-09-15T01:09:47.307Z,32.10
2022-09-15T01:12:14.058Z,35.87
2022-09-15T01:14:41.142Z,30.33
2022-09-15T01:17:13.612Z,31.60
2022-09-15T01:20:13.477Z,37.00
2022-09-15T01:23:05.992Z,32.47
2022-09-15T01:25:49.476Z,38.27
2022-09-15T01:28:48.887Z,32.03
2022-09-15T01:31:21.205Z,35.77
2022-09-15T01:33:51.705Z,36.17
2022-09-15T01:36:25.088Z,35.37
2022-09-15T01:39:13.098Z,32.53
2022-09-15T01:42:00.046Z,35.53
2022-09-15T01:44:37.398Z,38.23
2022-09-15T01:47:09.400Z,37.40
2022-09-15T01:49:46.582Z,34.60
2022-09-15T01:52:16.642Z,32.80
2022-09-15T01:54:48.811Z,32.57
2022-09-15T01:57:21.862Z,29.40
2022-09-15T01:59:50.445Z,34.47
2022-09-15T02:02:20.891Z,35.30
2022-09-15T02:04:52.846Z,34.40
2022-09-15T02:07:39.067Z,36.27
2022-09-15T02:10:13.269Z,35.67
2022-09-15T02:12:52.331Z,35.93
2022-09-15T02:15:23.164Z,39.97
2022-09-15T02:17:54.206Z,39.00
2022-09-15T02:20:34.447Z,46.10
2022-09-15T02:23:08.363Z,39.17
2022-09-15T02:25:39.338Z,38.20
2022-09-15T02:28:08.483Z,37.53
2022-09-15T02:30:41.180Z,38.43
2022-09-15T02:33:10.381Z,44.30
2022-09-15T02:35:38.649Z,46.10
2022-09-15T02:38:07.378Z,35.77
2022-09-15T02:40:34.196Z,32.93
2022-09-15T02:43:02.458Z,42.83
2022-09-15T02:45:33.819Z,38.90
2022-09-15T02:48:00.969Z,39.70
2022-09-15T02:50:28.104Z,37.20
2022-09-15T02:52:55.595Z,31.77
2022-09-15T02:55:22.754Z,35.53
2022-09-15T02:57:50.110Z,35.10
2022-09-15T03:00:17.510Z,33.53
2022-09-15T03:02:46.001Z,35.40
2022-09-15T03:05:14.363Z,31.23
2022-09-15T03:07:41.318Z,37.70
2022-09-15T03:10:10.307Z,34.57
2022-09-15T03:12:38.090Z,31.73
2022-09-15T03:15:05.652Z,32.30
2022-09-15T03:17:41.398Z,35.23
2022-09-15T03:20:09.300Z,37.17
2022-09-15T03:22:36.558Z,38.80
2022-09-15T03:25:05.493Z,29.77
2022-09-15T03:27:34.071Z,32.40
2022-09-15T03:30:01.812Z,37.60
2022-09-15T03:32:29.262Z,32.13
2022-09-15T03:34:58.502Z,39.23
2022-09-15T03:37:25.965Z,31.43
2022-09-15T03:39:53.243Z,32.63
2022-09-15T03:42:20.303Z,33.87
2022-09-15T03:44:47.352Z,42.33
2022-09-15T03:47:14.104Z,36.27
2022-09-15T03:49:41.161Z,42.23
2022-09-15T03:52:07.812Z,36.57
2022-09-15T03:54:35.383Z,34.07
2022-09-15T03:57:02.260Z,37.93
2022-09-15T03:59:29.424Z,36.17
2022-09-15T04:01:56.574Z,35.83
2022-09-15T04:04:23.670Z,30.93
2022-09-15T04:06:50.316Z,35.27
2022-09-15T04:09:17.055Z,33.80
2022-09-15T04:11:44.099Z,35.07
2022-09-15T04:14:10.760Z,35.73
2022-09-15T04:16:37.891Z,34.53
2022-09-15T04:19:04.685Z,40.07
2022-09-15T04:21:32.009Z,37.23
2022-09-15T04:23:58.879Z,34.93
2022-09-15T04:26:32.622Z,34.97
2022-09-15T04:29:03.944Z,32.77
2022-09-15T04:31:32.359Z,35.47
2022-09-15T04:33:59.423Z,36.30
2022-09-15T04:36:28.154Z,42.60
2022-09-15T04:38:55.318Z,34.37
2022-09-15T04:41:22.513Z,36.10
2022-09-15T04:43:49.886Z,35.27
2022-09-15T04:46:18.326Z,42.37
2022-09-15T04:48:46.098Z,40.33
2022-09-15T04:51:16.874Z,42.13
2022-09-15T04:53:44.446Z,45.07
2022-09-15T04:56:13.467Z,41.27
2022-09-15T04:58:43.285Z,48.17
2022-09-15T05:01:15.186Z,43.87
2022-09-15T05:03:43.123Z,53.37
2022-09-15T05:06:13.584Z,53.63
2022-09-15T05:08:40.678Z,55.33
2022-09-15T05:11:09.391Z,39.27
2022-09-15T05:13:37.087Z,47.20
2022-09-15T05:16:13.281Z,50.17
2022-09-15T05:18:40.891Z,46.10
2022-09-15T05:21:09.563Z,42.27
2022-09-15T05:23:37.077Z,45.87
2022-09-15T05:26:05.970Z,47.63
2022-09-15T05:28:33.895Z,42.00
2022-09-15T05:31:01.101Z,54.70
2022-09-15T05:33:28.061Z,40.50
2022-09-15T05:35:58.937Z,38.13
2022-09-15T05:38:26.484Z,49.10
2022-09-15T05:40:53.245Z,44.63
2022-09-15T05:43:20.366Z,41.07
2022-09-15T05:45:54.916Z,44.57
2022-09-15T05:48:22.450Z,41.17
2022-09-15T05:50:53.517Z,47.93
2022-09-15T05:53:21.033Z,43.23
2022-09-15T05:55:47.942Z,44.40
2022-09-15T05:58:14.957Z,42.40
2022-09-15T06:00:42.438Z,42.37
2022-09-15T06:03:15.398Z,39.07
2022-09-15T06:05:42.927Z,40.87
2022-09-15T06:08:09.616Z,45.23
2022-09-15T06:10:36.585Z,41.53
2022-09-15T06:13:03.221Z,30.13
2022-09-15T06:15:30.707Z,32.33
2022-09-15T06:17:57.452Z,33.33
2022-09-15T06:20:27.961Z,31.37
2022-09-15T06:22:56.572Z,35.47
2022-09-15T06:25:23.638Z,30.53
2022-09-15T06:27:50.611Z,29.50
2022-09-15T06:30:17.903Z,31.67
2022-09-15T06:32:48.028Z,33.73
2022-09-15T06:35:15.522Z,30.43
2022-09-15T06:37:43.087Z,30.00
2022-09-15T06:40:10.356Z,28.43
2022-09-15T06:42:37.052Z,30.93
2022-09-15T06:45:04.443Z,28.57
2022-09-15T06:47:33.969Z,25.57
2022-09-15T06:50:01.502Z,29.13
2022-09-15T06:52:28.217Z,27.87
2022-09-15T06:54:55.357Z,25.10
2022-09-15T06:57:22.412Z,23.60
2022-09-15T06:59:49.473Z,30.13
2022-09-15T07:02:16.611Z,25.20
2022-09-15T07:04:43.364Z,26.17
2022-09-15T07:07:10.434Z,23.43
2022-09-15T07:09:39.867Z,26.10
2022-09-15T07:12:08.111Z,21.17
2022-09-15T07:14:34.724Z,23.50
2022-09-15T07:17:01.390Z,23.13
2022-09-15T07:19:28.004Z,23.17
2022-09-15T07:21:55.040Z,26.33
2022-09-15T07:24:21.665Z,26.50
2022-09-15T07:26:48.336Z,24.77
2022-09-15T07:29:15.364Z,25.60
2022-09-15T07:31:42.051Z,29.90
2022-09-15T07:34:09.164Z,27.00
2022-09-15T07:36:36.503Z,29.73
2022-09-15T07:39:04.653Z,27.80
2022-09-15T07:41:32.665Z,25.77
2022-09-15T07:44:00.553Z,27.00
2022-09-15T07:46:29.905Z,21.07
2022-09-15T07:48:57.388Z,27.37
2022-09-15T07:51:25.286Z,24.70
2022-09-15T07:53:52.585Z,27.77
2022-09-15T07:56:20.425Z,29.47
2022-09-15T07:58:48.292Z,29.87
2022-09-15T08:01:16.310Z,27.67
2022-09-15T08:03:45.298Z,23.10
2022-09-15T08:06:13.466Z,21.10
2022-09-15T08:08:41.427Z,25.77
2022-09-15T08:11:09.321Z,26.83
2022-09-15T08:13:36.389Z,26.30
2022-09-15T08:16:11.639Z,24.53
2022-09-15T08:18:39.862Z,25.67
2022-09-15T08:21:07.929Z,26.20
2022-09-15T08:23:34.864Z,22.97
2022-09-15T08:26:01.548Z,24.43
2022-09-15T08:28:28.739Z,24.37
2022-09-15T08:31:03.156Z,28.60
2022-09-15T08:33:30.199Z,19.20
2022-09-15T08:36:05.554Z,24.90
2022-09-15T08:38:32.946Z,25.63
2022-09-15T08:41:03.131Z,17.87
2022-09-15T08:43:38.244Z,22.90
2022-09-15T08:46:09.600Z,19.63
2022-09-15T08:48:45.393Z,21.00
2022-09-15T08:51:23.181Z,20.50
2022-09-15T08:54:00.995Z,23.03
2022-09-15T08:56:29.515Z,23.57
2022-09-15T08:58:56.183Z,19.50
2022-09-15T09:02:00.168Z,18.57
2022-09-15T09:05:10.382Z,20.10
2022-09-15T09:07:52.293Z,22.53
2022-09-15T09:10:32.387Z,25.17
2022-09-15T09:13:07.345Z,21.43
2022-09-15T09:15:40.218Z,22.60
2022-09-15T09:18:31.717Z,17.57
2022-09-15T09:21:09.085Z,22.40
2022-09-15T09:23:48.420Z,25.53
2022-09-15T09:26:15.583Z,20.70
2022-09-15T09:28:47.667Z,21.30
2022-09-15T09:31:21.364Z,19.73
2022-09-15T09:34:26.102Z,16.10
2022-09-15T09:36:59.079Z,16.07
2022-09-15T09:39:27.547Z,19.57
2022-09-15T09:41:55.069Z,16.40
2022-09-15T09:44:31.617Z,15.37
2022-09-15T09:46:59.814Z,15.07
2022-09-15T09:49:34.370Z,15.63
2022-09-15T09:52:03.573Z,17.97
2022-09-15T09:54:32.959Z,12.43
2022-09-15T09:57:22.856Z,9.57
2022-09-15T09:59:50.990Z,10.33
2022-09-15T10:02:25.912Z,11.90
2022-09-15T10:04:52.999Z,9.60
2022-09-15T10:07:23.555Z,9.87
2022-09-15T10:09:58.635Z,8.20
2022-09-15T10:12:32.809Z,11.10
2022-09-15T10:15:06.447Z,11.53
2022-09-15T10:17:36.103Z,9.03
2022-09-15T10:20:07.372Z,10.77
2022-09-15T10:22:37.420Z,10.23
2022-09-15T10:25:39.424Z,8.17
2022-09-15T10:28:14.416Z,9.20
2022-09-15T10:30:59.772Z,11.70
2022-09-15T10:33:30.991Z,7.50
2022-09-15T10:36:04.168Z,9.63
2022-09-15T10:38:51.117Z,6.83
2022-09-15T10:41:30.978Z,7.07
2022-09-15T10:44:28.611Z,7.50
2022-09-15T10:47:18.187Z,5.37
2022-09-15T10:50:03.391Z,5.07
2022-09-15T10:52:45.445Z,5.23
2022-09-15T10:55:51.160Z,5.03
2022-09-15T10:58:51.057Z,7.57
2022-09-15T11:01:29.896Z,5.32
2022-09-15T11:03:56.947Z,4.97
2022-09-15T11:06:29.619Z,7.50
2022-09-15T11:09:08.791Z,3.10
2022-09-15T11:11:51.420Z,3.37
2022-09-15T11:14:51.952Z,5.57
2022-09-15T11:17:53.211Z,3.80
2022-09-15T11:20:49.507Z,7.73
2022-09-15T11:23:19.049Z,6.67
2022-09-15T11:25:50.783Z,7.33
2022-09-15T11:28:31.669Z,5.30
2022-09-15T11:30:58.730Z,7.00
2022-09-15T11:33:34.414Z,6.43
2022-09-15T11:36:09.516Z,3.37
2022-09-15T11:38:57.750Z,4.17
2022-09-15T11:41:33.424Z,5.03
2022-09-15T11:44:25.140Z,7.00
2022-09-15T11:47:15.437Z,4.70
2022-09-15T11:49:46.214Z,4.07
2022-09-15T11:52:42.007Z,5.43
2022-09-15T11:55:36.000Z,4.90
2022-09-15T11:58:22.486Z,6.73
2022-09-15T12:01:00.902Z,5.23
2022-09-15T12:03:36.433Z,6.90
2022-09-15T12:06:26.748Z,5.00
2022-09-15T12:08:58.530Z,4.67
2022-09-15T12:11:28.447Z,6.33
2022-09-15T12:13:55.998Z,2.87
2022-09-15T12:16:24.070Z,4.10
2022-09-15T12:19:04.396Z,4.83
2022-09-15T12:21:43.136Z,5.87
2022-09-15T12:24:26.936Z,5.30
2022-09-15T12:26:53.625Z,4.27
2022-09-15T12:29:26.504Z,4.00
2022-09-15T12:32:22.242Z,4.97
2022-09-15T12:35:00.616Z,3.17
2022-09-15T12:37:35.125Z,5.23
2022-09-15T12:40:02.739Z,6.97
2022-09-15T12:42:31.385Z,2.97
2022-09-15T12:45:06.038Z,3.30
2022-09-15T12:47:52.930Z,5.80
2022-09-15T12:50:19.966Z,4.73
2022-09-15T12:52:58.159Z,5.35
2022-09-15T12:55:29.052Z,6.10
2022-09-15T12:58:09.183Z,4.13
2022-09-15T13:00:42.378Z,3.77
2022-09-15T13:06:21.212Z,3.65
2022-09-15T13:09:00.912Z,4.10
2022-09-15T13:11:39.482Z,4.38
2022-09-15T13:14:06.837Z,5.47
2022-09-15T13:16:58.377Z,3.67
2022-09-15T13:19:25.468Z,4.03
2022-09-15T13:22:16.527Z,4.53
2022-09-15T13:24:45.900Z,5.70
2022-09-15T13:27:14.802Z,4.13
2022-09-15T13:29:52.252Z,3.87
2022-09-15T13:32:40.413Z,4.07
2022-09-15T13:35:35.654Z,3.37
2022-09-15T13:38:43.121Z,5.57
2022-09-15T13:41:16.424Z,5.10
2022-09-15T13:44:08.533Z,4.23
2022-09-15T13:47:05.328Z,6.97
2022-09-15T13:49:52.074Z,3.63
2022-09-15T13:52:19.115Z,4.40
2022-09-15T13:55:26.167Z,3.77
2022-09-15T14:00:53.541Z,5.37
2022-09-15T14:03:42.872Z,3.53
2022-09-15T14:06:21.068Z,6.97
2022-09-15T14:08:52.819Z,5.87
2022-09-15T14:11:27.979Z,4.43
2022-09-15T14:13:55.826Z,2.87
2022-09-15T14:16:35.896Z,3.67
2022-09-15T14:19:27.627Z,3.80
2022-09-15T14:21:58.322Z,3.00
2022-09-15T14:24:31.072Z,10.33
2022-09-15T14:27:03.345Z,5.67
2022-09-15T14:29:31.037Z,6.63
2022-09-15T14:32:00.769Z,4.97
2022-09-15T14:34:31.039Z,5.17
2022-09-15T14:37:07.347Z,5.37
2022-09-15T14:39:37.313Z,8.37
2022-09-15T14:42:22.823Z,7.57
2022-09-15T14:47:39.132Z,6.60
2022-09-15T14:50:17.894Z,5.60
2022-09-15T14:52:51.825Z,5.33
2022-09-15T14:55:24.778Z,4.97
2022-09-15T14:58:20.155Z,6.40
2022-09-15T15:01:01.978Z,5.60
2022-09-15T15:03:41.044Z,5.00
2022-09-15T15:06:30.179Z,2.43
2022-09-15T15:09:03.459Z,2.93
2022-09-15T15:11:33.025Z,3.40
2022-09-15T15:14:00.317Z,4.70
2022-09-15T15:16:31.506Z,3.37
2022-09-15T15:18:58.358Z,3.47
2022-09-15T15:21:35.250Z,2.83
2022-09-15T15:24:28.510Z,2.33
2022-09-15T15:26:55.597Z,3.60
2022-09-15T15:29:51.737Z,26.83
2022-09-15T15:32:22.024Z,8.10
2022-09-15T15:35:02.268Z,4.33
2022-09-15T15:37:30.795Z,9.33
2022-09-15T15:40:00.583Z,4.50
2022-09-15T15:42:28.854Z,5.60
2022-09-15T15:45:20.634Z,2.30
2022-09-15T15:47:47.512Z,11.67
2022-09-15T15:50:20.860Z,6.03
2022-09-15T15:52:49.090Z,6.67
2022-09-15T15:55:30.909Z,8.53
2022-09-15T15:57:58.440Z,7.03
2022-09-15T16:00:46.082Z,9.30
2022-09-15T16:03:14.291Z,260.17
2022-09-15T16:05:44.503Z,17.53
2022-09-15T16:08:26.347Z,11.60
2022-09-15T16:10:54.414Z,4.53
2022-09-15T16:13:22.608Z,15.47
2022-09-15T16:15:49.740Z,5.17
2022-09-15T16:18:17.989Z,4.57
2022-09-15T16:20:44.864Z,5.10
2022-09-15T16:23:17.930Z,2.57
2022-09-15T16:25:54.189Z,3.20
2022-09-15T16:28:21.002Z,2.50
2022-09-15T16:30:48.117Z,3.83
2022-09-15T16:33:16.168Z,2.83
2022-09-15T16:35:51.028Z,3.20
2022-09-15T16:38:20.021Z,4.67
2022-09-15T16:40:47.824Z,6.33
2022-09-15T16:43:16.581Z,6.60
2022-09-15T16:45:44.017Z,3.63
2022-09-15T16:48:11.296Z,2.47
2022-09-15T16:50:42.690Z,3.07
2022-09-15T16:53:17.902Z,2.70
2022-09-15T16:55:50.987Z,4.70
2022-09-15T16:58:19.561Z,6.03
2022-09-15T17:00:48.338Z,3.93
2022-09-15T17:03:17.600Z,4.33
2022-09-15T17:05:48.643Z,6.27
2022-09-15T17:08:16.787Z,9.87
2022-09-15T17:10:43.892Z,4.10
2022-09-15T17:13:17.409Z,4.73
2022-09-15T17:15:45.858Z,8.37
2022-09-15T17:18:15.320Z,7.67
2022-09-15T17:20:46.807Z,4.27
2022-09-15T17:23:34.971Z,7.23
2022-09-15T17:26:04.722Z,2.93
2022-09-15T17:28:34.324Z,5.07
2022-09-15T17:31:14.578Z,5.27
2022-09-15T17:33:41.877Z,5.00
2022-09-15T17:36:08.581Z,6.47
2022-09-15T17:38:35.698Z,9.33
2022-09-15T17:41:02.452Z,5.60
2022-09-15T17:43:30.601Z,4.77
2022-09-15T17:45:58.101Z,3.20
2022-09-15T17:48:25.610Z,5.00
2022-09-15T17:50:52.723Z,4.33
2022-09-15T17:53:28.252Z,7.20
2022-09-15T17:55:56.014Z,6.03
2022-09-15T17:58:24.892Z,7.47
2022-09-15T18:00:52.530Z,11.30
2022-09-15T18:03:27.733Z,8.63
2022-09-15T18:05:56.614Z,8.80
2022-09-15T18:08:23.285Z,6.37
2022-09-15T18:10:50.677Z,6.43
2022-09-15T18:13:20.432Z,6.33
2022-09-15T18:15:48.911Z,5.47
2022-09-15T18:18:22.230Z,5.43
2022-09-15T18:20:49.807Z,5.07
2022-09-15T18:23:24.917Z,5.37
2022-09-15T18:25:52.230Z,5.17
2022-09-15T18:28:19.689Z,5.77
2022-09-15T18:30:48.472Z,6.67
2022-09-15T18:33:19.864Z,4.00
2022-09-15T18:35:47.790Z,4.67
2022-09-15T18:38:14.930Z,6.40
2022-09-15T18:40:47.506Z,2.03
2022-09-15T18:43:14.253Z,4.97
2022-09-15T18:45:42.623Z,5.70
2022-09-15T18:48:12.714Z,3.63
2022-09-15T18:50:41.308Z,3.23
2022-09-15T18:53:08.389Z,7.97
2022-09-15T18:55:35.615Z,2.73
2022-09-15T18:58:02.662Z,4.80
2022-09-15T19:00:29.993Z,9.67
2022-09-15T19:02:58.264Z,4.37
2022-09-15T19:05:26.015Z,4.03
2022-09-15T19:07:53.076Z,4.33
2022-09-15T19:10:20.166Z,4.07
2022-09-15T19:12:46.870Z,5.60
2022-09-15T19:15:14.795Z,3.63
2022-09-15T19:17:42.737Z,3.97
2022-09-15T19:20:11.767Z,5.87
2022-09-15T19:22:38.950Z,6.30
2022-09-15T19:25:06.510Z,6.70
2022-09-15T19:27:33.391Z,4.00
2022-09-15T19:30:00.579Z,3.13
2022-09-15T19:32:27.412Z,2.40
2022-09-15T19:34:54.282Z,5.90
2022-09-15T19:37:22.411Z,6.10
2022-09-15T19:39:50.074Z,3.27
2022-09-15T19:42:17.432Z,3.90
2022-09-15T19:44:44.559Z,2.97
2022-09-15T19:47:11.942Z,4.13
2022-09-15T19:49:39.006Z,3.13
2022-09-15T19:52:06.479Z,3.73
2022-09-15T19:54:34.435Z,2.17
2022-09-15T19:57:01.740Z,2.23
2022-09-15T19:59:31.347Z,4.50
2022-09-15T20:01:59.284Z,3.73
2022-09-15T20:04:26.312Z,4.13
2022-09-15T20:06:53.419Z,3.37
2022-09-15T20:09:20.491Z,5.43
2022-09-15T20:11:47.712Z,2.93
2022-09-15T20:14:14.687Z,3.87
2022-09-15T20:16:41.858Z,4.20
2022-09-15T20:19:09.108Z,5.27
2022-09-15T20:21:49.951Z,5.20
2022-09-15T20:24:18.016Z,7.07
2022-09-15T20:26:44.772Z,4.57
2022-09-15T20:29:24.315Z,5.83
2022-09-15T20:31:51.012Z,3.37
2022-09-15T20:34:18.701Z,6.10
2022-09-15T20:36:45.659Z,4.87
2022-09-15T20:39:14.560Z,6.17
2022-09-15T20:41:46.206Z,9.87
2022-09-15T20:44:13.286Z,4.07
2022-09-15T20:46:40.669Z,4.13
2022-09-15T20:49:07.874Z,4.10
2022-09-15T20:51:35.145Z,5.97
2022-09-15T20:54:04.342Z,3.67
2022-09-15T20:56:34.724Z,3.47
2022-09-15T20:59:01.861Z,5.50
2022-09-15T21:01:32.948Z,3.60
2022-09-15T21:03:59.743Z,5.93
2022-09-15T21:06:27.693Z,4.83
2022-09-15T21:08:56.090Z,4.97
2022-09-15T21:11:24.181Z,4.67
2022-09-15T21:13:51.253Z,2.87
2022-09-15T21:16:24.135Z,4.77
2022-09-15T21:18:51.534Z,3.07
2022-09-15T21:21:26.229Z,5.33
2022-09-15T21:23:54.924Z,4.63
2022-09-15T21:26:24.016Z,5.50
2022-09-15T21:28:51.347Z,4.57
2022-09-15T21:31:23.569Z,6.13
2022-09-15T21:33:51.459Z,3.30
2022-09-15T21:36:23.378Z,6.23
2022-09-15T21:38:51.988Z,4.47
2022-09-15T21:41:23.565Z,3.20
2022-09-15T21:43:54.744Z,3.70
2022-09-15T21:46:23.808Z,6.80
2022-09-15T21:48:50.760Z,3.33
2022-09-15T21:51:23.991Z,4.07
2022-09-15T21:53:53.097Z,3.57
2022-09-15T21:56:20.359Z,4.10
2022-09-15T21:58:47.514Z,3.67
2022-09-15T22:01:14.700Z,6.40
2022-09-15T22:03:42.742Z,6.40
2022-09-15T22:06:11.678Z,4.20
2022-09-15T22:08:41.796Z,2.50
2022-09-15T22:11:09.061Z,3.93
2022-09-15T22:13:39.325Z,4.10
2022-09-15T22:16:10.278Z,6.70
2022-09-15T22:18:38.309Z,2.93
2022-09-15T22:21:11.116Z,4.37
2022-09-15T22:23:38.643Z,1.53
2022-09-15T22:26:08.392Z,2.47
2022-09-15T22:28:35.524Z,4.67
2022-09-15T22:31:04.854Z,4.73
2022-09-15T22:33:31.521Z,5.67
2022-09-15T22:35:58.514Z,3.73
2022-09-15T22:38:27.354Z,2.07
2022-09-15T22:40:54.401Z,5.97
2022-09-15T22:43:21.624Z,4.87
2022-09-15T22:45:48.589Z,4.33
2022-09-15T22:48:15.767Z,6.13
2022-09-15T22:50:45.151Z,5.80
2022-09-15T22:53:12.925Z,4.07
2022-09-15T22:55:40.276Z,3.63
2022-09-15T22:58:07.863Z,2.90
2022-09-15T23:00:37.021Z,5.70
2022-09-15T23:03:04.172Z,5.87
2022-09-15T23:05:30.814Z,3.43
2022-09-15T23:07:57.910Z,5.07
2022-09-15T23:10:26.510Z,4.17
2022-09-15T23:12:53.224Z,4.37
2022-09-15T23:15:20.282Z,3.87
2022-09-15T23:17:47.407Z,3.27
2022-09-15T23:20:14.468Z,4.03
2022-09-15T23:22:41.510Z,3.30
2022-09-15T23:25:08.831Z,2.93
2022-09-15T23:27:35.520Z,4.60
2022-09-15T23:30:02.161Z,4.63
2022-09-15T23:32:29.209Z,4.80
2022-09-15T23:34:56.470Z,5.73
2022-09-15T23:37:23.131Z,8.00
2022-09-15T23:39:49.796Z,5.07
2022-09-15T23:42:18.890Z,4.13
2022-09-15T23:44:46.281Z,4.17
2022-09-15T23:47:13.312Z,4.53
2022-09-15T23:49:40.072Z,4.73
2022-09-15T23:52:06.752Z,2.40
2022-09-15T23:54:33.865Z,3.87
2022-09-15T23:57:00.920Z,2.80
2022-09-15T23:59:31.714Z,3.87
